createdAt,value
2018-02-19T00:01:11.683Z,22.33
2018-02-19T00:03:44.721Z,22.30
2018-02-19T00:06:14.719Z,20.10
2018-02-19T00:08:46.929Z,22.10
2018-02-19T00:11:16.210Z,25.60
2018-02-19T00:13:51.072Z,21.27
2018-02-19T00:16:20.636Z,24.13
2018-02-19T00:18:51.511Z,23.93
2018-02-19T00:21:20.608Z,28.90
2018-02-19T00:23:56.875Z,29.73
2018-02-19T00:26:25.930Z,35.53
2018-02-19T00:28:55.482Z,34.70
2018-02-19T00:31:25.419Z,35.63
2018-02-19T00:33:58.258Z,30.90
2018-02-19T00:36:27.342Z,33.10
2018-02-19T00:38:59.930Z,31.33
2018-02-19T00:41:28.917Z,31.17
2018-02-19T00:44:02.740Z,31.07
2018-02-19T00:46:32.100Z,31.27
2018-02-19T00:49:05.523Z,31.10
2018-02-19T00:51:34.588Z,32.57
2018-02-19T00:54:07.251Z,30.30
2018-02-19T00:56:36.275Z,28.83
2018-02-19T00:59:08.539Z,34.73
2018-02-19T01:01:37.995Z,29.00
2018-02-19T01:04:13.008Z,25.97
2018-02-19T01:06:42.042Z,26.80
2018-02-19T01:09:14.607Z,28.13
2018-02-19T01:11:44.409Z,26.50
2018-02-19T01:14:16.316Z,32.40
2018-02-19T01:16:45.442Z,33.07
2018-02-19T01:19:17.897Z,32.47
2018-02-19T01:21:47.289Z,24.10
2018-02-19T01:24:20.260Z,26.70
2018-02-19T01:26:49.985Z,24.07
2018-02-19T01:29:22.144Z,26.90
2018-02-19T01:31:51.127Z,31.33
2018-02-19T01:34:23.671Z,25.13
2018-02-19T01:36:55.611Z,23.60
2018-02-19T01:39:25.456Z,26.90
2018-02-19T01:41:55.232Z,25.93
2018-02-19T01:44:27.721Z,30.83
2018-02-19T01:46:56.631Z,30.70
2018-02-19T01:49:29.634Z,24.33
2018-02-19T01:51:58.548Z,27.37
2018-02-19T01:54:31.548Z,25.17
2018-02-19T01:57:00.496Z,26.03
2018-02-19T01:59:33.375Z,25.73
2018-02-19T02:02:02.705Z,26.60
2018-02-19T02:04:35.359Z,32.07
2018-02-19T02:07:05.137Z,25.13
2018-02-19T02:09:37.575Z,25.30
2018-02-19T02:12:08.045Z,22.83
2018-02-19T02:14:40.018Z,22.33
2018-02-19T02:17:11.998Z,23.70
2018-02-19T02:19:42.208Z,22.23
2018-02-19T02:22:11.165Z,24.13
2018-02-19T02:24:44.172Z,26.77
2018-02-19T02:27:13.857Z,25.20
2018-02-19T02:29:46.221Z,26.33
2018-02-19T02:32:15.457Z,23.77
2018-02-19T02:34:48.394Z,23.10
2018-02-19T02:37:17.399Z,24.97
2018-02-19T02:39:50.657Z,24.97
2018-02-19T02:42:19.695Z,23.40
2018-02-19T02:44:53.231Z,20.67
2018-02-19T02:47:22.488Z,22.10
2018-02-19T02:49:55.194Z,25.43
2018-02-19T02:52:24.133Z,23.40
2018-02-19T02:54:57.783Z,24.10
2018-02-19T02:57:27.482Z,21.07
2018-02-19T02:59:59.988Z,21.00
2018-02-19T03:02:29.714Z,27.23
2018-02-19T03:05:02.415Z,21.73
2018-02-19T03:07:31.421Z,24.77
2018-02-19T03:10:04.501Z,25.40
2018-02-19T03:12:33.563Z,21.03
2018-02-19T03:15:06.579Z,22.03
2018-02-19T03:17:35.912Z,22.57
2018-02-19T03:20:09.550Z,21.53
2018-02-19T03:22:38.626Z,23.13
2018-02-19T03:25:13.611Z,27.10
2018-02-19T03:27:42.605Z,23.30
2018-02-19T03:30:13.806Z,21.17
2018-02-19T03:32:43.851Z,25.57
2018-02-19T03:35:19.909Z,21.43
2018-02-19T03:37:48.856Z,24.17
2018-02-19T03:40:18.540Z,21.83
2018-02-19T03:42:48.259Z,23.53
2018-02-19T03:45:21.030Z,22.77
2018-02-19T03:47:50.759Z,19.03
2018-02-19T03:50:23.092Z,27.57
2018-02-19T03:52:52.362Z,22.60
2018-02-19T03:55:24.556Z,21.53
2018-02-19T03:57:53.540Z,24.67
2018-02-19T04:00:25.527Z,24.63
2018-02-19T04:02:55.304Z,23.90
2018-02-19T04:05:28.570Z,25.30
2018-02-19T04:07:57.811Z,21.20
2018-02-19T04:10:29.513Z,25.20
2018-02-19T04:12:58.441Z,27.03
2018-02-19T04:15:31.702Z,22.67
2018-02-19T04:18:00.698Z,23.70
2018-02-19T04:20:33.395Z,26.57
2018-02-19T04:23:03.102Z,23.57
2018-02-19T04:25:35.404Z,26.07
2018-02-19T04:28:05.135Z,24.87
2018-02-19T04:30:37.825Z,23.70
2018-02-19T04:33:07.073Z,23.17
2018-02-19T04:35:38.723Z,28.13
2018-02-19T04:38:07.695Z,25.23
2018-02-19T04:40:41.750Z,24.13
2018-02-19T04:43:10.824Z,24.90
2018-02-19T04:45:43.998Z,28.13
2018-02-19T04:48:13.281Z,23.63
2018-02-19T04:50:45.808Z,27.27
2018-02-19T04:53:14.803Z,24.60
2018-02-19T04:55:47.925Z,21.47
2018-02-19T04:58:17.012Z,25.90
2018-02-19T05:00:50.039Z,26.90
2018-02-19T05:03:19.034Z,25.47
2018-02-19T05:05:52.319Z,28.30
2018-02-19T05:08:21.639Z,25.37
2018-02-19T05:10:54.456Z,26.33
2018-02-19T05:13:24.148Z,26.93
2018-02-19T05:15:57.153Z,30.30
2018-02-19T05:18:26.894Z,23.83
2018-02-19T05:20:58.016Z,25.23
2018-02-19T05:23:35.574Z,26.30
2018-02-19T05:26:04.516Z,26.13
2018-02-19T05:28:33.492Z,25.60
2018-02-19T05:31:04.029Z,25.17
2018-02-19T05:33:36.143Z,23.90
2018-02-19T05:36:07.015Z,28.60
2018-02-19T05:38:35.981Z,22.17
2018-02-19T05:41:08.920Z,21.90
2018-02-19T05:43:37.905Z,25.57
2018-02-19T05:46:11.920Z,23.97
2018-02-19T05:48:41.383Z,25.53
2018-02-19T05:51:14.565Z,24.57
2018-02-19T05:53:44.633Z,25.00
2018-02-19T05:56:16.488Z,24.47
2018-02-19T05:58:45.445Z,22.03
2018-02-19T06:01:17.798Z,21.07
2018-02-19T06:03:47.110Z,22.10
2018-02-19T06:06:20.396Z,21.77
2018-02-19T06:08:50.155Z,23.63
2018-02-19T06:11:22.115Z,26.07
2018-02-19T06:13:51.121Z,23.03
2018-02-19T06:16:24.217Z,24.03
2018-02-19T06:18:53.533Z,23.50
2018-02-19T06:21:26.147Z,24.43
2018-02-19T06:23:55.140Z,22.60
2018-02-19T06:26:28.507Z,24.57
2018-02-19T06:29:04.679Z,26.00
2018-02-19T06:31:34.207Z,24.00
2018-02-19T06:34:03.325Z,26.27
2018-02-19T06:36:32.401Z,21.03
2018-02-19T06:39:03.079Z,22.93
2018-02-19T06:41:34.798Z,23.40
2018-02-19T06:44:03.808Z,20.13
2018-02-19T06:46:36.882Z,23.60
2018-02-19T06:49:05.876Z,22.00
2018-02-19T06:51:40.430Z,20.17
2018-02-19T06:54:09.391Z,21.67
2018-02-19T06:56:41.956Z,19.80
2018-02-19T06:59:10.967Z,19.30
2018-02-19T07:01:44.143Z,19.33
2018-02-19T07:04:13.503Z,21.97
2018-02-19T07:06:46.625Z,22.33
2018-02-19T07:09:15.625Z,22.60
2018-02-19T07:11:48.484Z,24.40
2018-02-19T07:14:17.443Z,23.50
2018-02-19T07:16:52.015Z,23.23
2018-02-19T07:19:21.532Z,25.33
2018-02-19T07:21:54.029Z,23.60
2018-02-19T07:24:23.093Z,23.77
2018-02-19T07:26:56.941Z,22.97
2018-02-19T07:29:25.962Z,24.13
2018-02-19T07:31:59.655Z,24.63
2018-02-19T07:34:30.332Z,23.57
2018-02-19T07:37:00.320Z,22.63
2018-02-19T07:39:29.366Z,25.30
2018-02-19T07:42:04.161Z,25.10
2018-02-19T07:44:33.219Z,24.37
2018-02-19T07:47:06.324Z,26.00
2018-02-19T07:49:35.615Z,27.97
2018-02-19T07:52:09.091Z,21.80
2018-02-19T07:54:38.204Z,24.03
2018-02-19T07:57:12.350Z,21.43
2018-02-19T07:59:41.452Z,24.83
2018-02-19T08:02:15.468Z,24.63
2018-02-19T08:04:45.628Z,21.53
2018-02-19T08:07:16.604Z,23.87
2018-02-19T08:09:45.648Z,25.27
2018-02-19T08:12:18.366Z,23.23
2018-02-19T08:14:47.380Z,26.63
2018-02-19T08:17:21.470Z,23.90
2018-02-19T08:19:51.049Z,24.03
2018-02-19T08:22:22.431Z,24.30
2018-02-19T08:24:51.573Z,26.53
2018-02-19T08:27:24.813Z,24.17
2018-02-19T08:29:53.956Z,24.17
2018-02-19T08:32:26.496Z,24.73
2018-02-19T08:34:55.847Z,23.43
2018-02-19T08:37:28.289Z,23.87
2018-02-19T08:39:57.482Z,26.77
2018-02-19T08:42:30.352Z,24.17
2018-02-19T08:44:59.621Z,26.73
2018-02-19T08:47:33.877Z,26.53
2018-02-19T08:50:04.332Z,22.87
2018-02-19T08:52:34.417Z,23.00
2018-02-19T08:55:03.539Z,25.57
2018-02-19T08:57:36.968Z,18.97
2018-02-19T09:00:06.196Z,24.13
2018-02-19T09:02:39.584Z,21.03
2018-02-19T09:05:08.944Z,19.37
2018-02-19T09:07:41.197Z,23.77
2018-02-19T09:10:10.208Z,20.77
2018-02-19T09:12:44.237Z,19.27
2018-02-19T09:15:14.653Z,23.27
2018-02-19T09:17:45.830Z,23.23
2018-02-19T09:20:15.284Z,24.13
2018-02-19T09:22:47.739Z,23.30
2018-02-19T09:25:16.792Z,26.50
2018-02-19T09:27:50.127Z,36.13
2018-02-19T09:30:20.117Z,26.87
2018-02-19T09:32:52.827Z,25.57
2018-02-19T09:35:22.212Z,27.53
2018-02-19T09:37:55.012Z,27.40
2018-02-19T09:40:24.167Z,26.90
2018-02-19T09:42:58.631Z,22.97
2018-02-19T09:45:27.771Z,27.43
2018-02-19T09:48:01.404Z,27.27
2018-02-19T09:50:31.524Z,23.30
2018-02-19T17:41:49.825Z,25.17
2018-02-19T17:46:50.207Z,25.80
2018-02-19T17:49:23.743Z,27.93
2018-02-19T17:52:00.277Z,28.10
2018-02-19T17:54:42.752Z,33.10
2018-02-19T17:57:16.660Z,28.73
2018-02-19T17:59:50.668Z,40.67
2018-02-19T18:02:25.010Z,29.67
2018-02-19T18:04:59.001Z,34.03
2018-02-19T18:07:42.528Z,36.23
2018-02-19T18:10:17.408Z,37.73
2018-02-19T18:12:54.270Z,35.65
2018-02-19T18:15:31.242Z,40.17
2018-02-19T18:18:05.439Z,27.53
2018-02-19T18:23:20.420Z,29.50
2018-02-19T18:25:56.370Z,34.47
2018-02-19T18:28:32.335Z,33.37
2018-02-19T18:31:07.750Z,32.97
2018-02-19T18:33:43.211Z,35.00
2018-02-19T18:36:19.398Z,31.47
2018-02-19T18:38:59.545Z,33.17
2018-02-19T18:41:33.068Z,38.80
2018-02-19T18:44:07.309Z,32.33
2018-02-19T18:46:41.984Z,30.97
2018-02-19T18:49:18.480Z,32.60
2018-02-19T18:51:52.733Z,36.17
2018-02-19T18:54:29.916Z,35.47
2018-02-19T18:57:12.607Z,30.30
2018-02-19T18:59:47.958Z,31.83
2018-02-19T19:02:22.463Z,32.90
2018-02-19T19:04:59.827Z,30.53
2018-02-19T19:07:40.836Z,30.83
2018-02-19T19:10:55.547Z,26.67
2018-02-19T19:13:32.423Z,32.10
2018-02-19T19:16:16.057Z,32.57
2018-02-19T19:18:54.687Z,29.83
2018-02-19T19:21:29.848Z,34.53
2018-02-19T19:24:04.284Z,30.90
2018-02-19T19:26:39.028Z,34.40
2018-02-19T19:29:26.169Z,31.93
2018-02-19T19:32:03.932Z,28.63
2018-02-19T19:34:40.033Z,30.73
2018-02-19T19:37:14.349Z,31.77
2018-02-19T19:39:49.821Z,36.63
2018-02-19T19:44:51.680Z,30.63
2018-02-19T19:47:34.820Z,29.47
2018-02-19T19:50:10.521Z,34.10
2018-02-19T19:52:44.712Z,34.70
2018-02-19T19:55:18.048Z,35.63
2018-02-19T19:57:51.441Z,35.87
2018-02-19T20:00:34.575Z,31.53
2018-02-19T20:03:08.184Z,28.50
2018-02-19T20:05:47.410Z,29.90
2018-02-19T20:08:23.277Z,32.33
2018-02-19T20:10:58.833Z,31.63
2018-02-19T20:13:39.499Z,34.73
2018-02-19T20:16:12.798Z,31.07
2018-02-19T20:18:49.092Z,31.27
2018-02-19T20:21:22.386Z,35.70
2018-02-19T20:23:55.333Z,31.43
2018-02-19T20:26:30.400Z,32.10
2018-02-19T20:29:06.890Z,37.20
2018-02-19T20:31:49.940Z,33.63
2018-02-19T20:34:24.736Z,32.50
2018-02-19T20:36:59.620Z,34.73
2018-02-19T20:39:34.992Z,34.50
2018-02-19T20:42:11.154Z,32.50
2018-02-19T20:47:28.613Z,34.30
2018-02-19T20:50:03.705Z,28.87
2018-02-19T20:52:38.220Z,29.60
2018-02-19T20:55:11.445Z,30.90
2018-02-19T20:57:47.602Z,35.73
2018-02-19T21:00:21.910Z,32.10
2018-02-19T21:03:02.225Z,32.37
2018-02-19T21:05:35.838Z,32.47
2018-02-19T21:08:10.534Z,31.20
2018-02-19T21:10:43.599Z,30.50
2018-02-19T21:13:19.606Z,31.57
2018-02-19T21:15:53.521Z,36.17
2018-02-19T21:18:26.460Z,28.67
2018-02-19T21:21:02.055Z,31.13
2018-02-19T21:23:35.338Z,30.03
2018-02-19T21:26:13.848Z,32.10
2018-02-19T21:28:47.210Z,38.07
2018-02-19T21:31:22.002Z,36.50
2018-02-19T21:33:54.866Z,33.43
2018-02-19T21:36:28.688Z,34.43
2018-02-19T21:39:01.142Z,34.30
2018-02-19T21:41:33.693Z,36.53
2018-02-19T21:44:05.296Z,29.83
2018-02-19T21:46:36.981Z,34.07
2018-02-19T21:49:09.355Z,31.43
2018-02-19T21:51:41.551Z,32.80
2018-02-19T21:54:12.834Z,36.17
2018-02-19T21:56:42.494Z,32.43
2018-02-19T21:59:13.206Z,29.67
2018-02-19T22:01:43.895Z,33.87
2018-02-19T22:04:13.113Z,29.97
2018-02-19T22:06:43.631Z,32.17
2018-02-19T22:09:13.665Z,34.80
2018-02-19T22:11:45.698Z,34.67
2018-02-19T22:14:17.436Z,30.80
2018-02-19T22:16:49.402Z,33.57
2018-02-19T22:19:22.013Z,34.53
2018-02-19T22:21:56.008Z,32.07
2018-02-19T22:24:27.059Z,32.13
2018-02-19T22:26:58.146Z,31.20
2018-02-19T22:29:29.976Z,30.80
2018-02-19T22:32:01.352Z,32.23
2018-02-19T22:34:31.902Z,32.97
2018-02-19T22:37:01.742Z,30.47
2018-02-19T22:39:31.048Z,33.63
2018-02-19T22:42:00.758Z,31.23
2018-02-19T22:44:30.500Z,35.53
2018-02-19T22:47:00.329Z,32.83
2018-02-19T22:49:30.786Z,32.23
2018-02-19T22:52:00.066Z,32.13
2018-02-19T22:54:29.096Z,27.77
2018-02-19T22:56:58.467Z,33.27
2018-02-19T22:59:28.171Z,33.20
2018-02-19T23:01:57.250Z,37.27
2018-02-19T23:04:26.648Z,33.87
2018-02-19T23:07:08.751Z,30.93
2018-02-19T23:09:38.292Z,36.23
2018-02-19T23:12:07.362Z,31.60
2018-02-19T23:14:36.359Z,31.90
2018-02-19T23:17:05.769Z,32.50
2018-02-19T23:19:35.111Z,30.77
2018-02-19T23:22:06.800Z,32.60
2018-02-19T23:24:36.076Z,33.07
2018-02-19T23:27:08.952Z,28.57
2018-02-19T23:29:37.965Z,30.07
2018-02-19T23:32:13.125Z,34.13
2018-02-19T23:34:42.238Z,32.53
2018-02-19T23:37:13.825Z,33.73
2018-02-19T23:39:44.052Z,31.83
2018-02-19T23:42:16.916Z,32.97
2018-02-19T23:44:45.888Z,34.10
2018-02-19T23:47:18.301Z,35.20
2018-02-19T23:49:48.215Z,37.50
2018-02-19T23:52:20.556Z,37.93
2018-02-19T23:54:50.521Z,38.30
2018-02-19T23:57:22.764Z,34.13
2018-02-19T23:59:52.497Z,35.53
